createdAt,value
2019-05-03T00:02:11.793Z,13.67
2019-05-03T00:04:43.877Z,14.07
2019-05-03T00:07:15.089Z,14.85
2019-05-03T00:09:45.445Z,17.02
2019-05-03T00:12:15.776Z,14.85
2019-05-03T00:14:47.847Z,13.70
2019-05-03T00:17:18.150Z,15.60
2019-05-03T00:19:48.438Z,15.30
2019-05-03T00:22:18.722Z,17.30
2019-05-03T00:25:01.976Z,19.90
2019-05-03T00:27:21.828Z,17.85
2019-05-03T00:29:52.472Z,21.17
2019-05-03T00:32:24.378Z,21.95
2019-05-03T00:34:56.610Z,21.93
2019-05-03T00:37:28.538Z,21.25
2019-05-03T00:40:03.024Z,21.83
2019-05-03T00:42:33.308Z,22.45
2019-05-03T00:45:05.601Z,24.40
2019-05-03T00:47:36.249Z,20.97
2019-05-03T00:50:07.644Z,18.57
2019-05-03T00:52:37.932Z,20.27
2019-05-03T00:55:16.109Z,19.57
2019-05-03T00:57:41.566Z,20.68
2019-05-03T01:00:12.495Z,18.82
2019-05-03T01:02:43.133Z,18.12
2019-05-03T01:05:13.482Z,17.35
2019-05-03T01:07:43.771Z,15.83
2019-05-03T01:10:14.263Z,16.20
2019-05-03T01:12:44.557Z,16.82
2019-05-03T01:15:22.363Z,15.98
2019-05-03T01:17:52.655Z,17.65
2019-05-03T01:20:22.934Z,17.85
2019-05-03T01:22:53.228Z,17.67
2019-05-03T01:25:32.252Z,17.73
2019-05-03T01:27:55.557Z,17.42
2019-05-03T01:30:25.799Z,19.12
2019-05-03T01:32:56.082Z,20.05
2019-05-03T01:35:26.391Z,17.80
2019-05-03T01:37:56.684Z,18.10
2019-05-03T01:40:26.971Z,17.32
2019-05-03T01:42:57.488Z,19.23
2019-05-03T01:45:27.948Z,18.32
2019-05-03T01:48:02.531Z,16.87
2019-05-03T01:50:52.181Z,15.70
2019-05-03T01:53:24.302Z,17.02
2019-05-03T01:55:54.589Z,15.53
2019-05-03T01:58:25.288Z,19.07
2019-05-03T02:00:57.519Z,14.00
2019-05-03T02:03:32.557Z,13.25
2019-05-03T02:06:02.890Z,12.43
2019-05-03T02:08:33.746Z,13.10
2019-05-03T02:11:04.099Z,11.45
2019-05-03T02:13:34.395Z,10.32
2019-05-03T02:16:04.746Z,10.60
2019-05-03T02:18:35.033Z,10.00
2019-05-03T02:21:05.330Z,13.00
2019-05-03T02:23:35.626Z,10.18
2019-05-03T02:26:05.894Z,10.00
2019-05-03T02:28:36.177Z,8.78
2019-05-03T02:31:06.528Z,9.28
2019-05-03T02:33:36.810Z,9.75
2019-05-03T02:36:07.087Z,9.93
2019-05-03T02:38:37.449Z,8.40
2019-05-03T02:41:09.102Z,8.35
2019-05-03T02:43:41.010Z,9.55
2019-05-03T02:46:31.067Z,12.20
2019-05-03T02:49:19.159Z,9.03
2019-05-03T02:51:49.437Z,7.40
2019-05-03T02:54:20.334Z,7.08
2019-05-03T02:56:50.629Z,6.78
2019-05-03T02:59:21.166Z,5.95
2019-05-03T03:01:51.687Z,9.45
2019-05-03T03:04:25.833Z,7.15
2019-05-03T03:06:58.309Z,7.77
2019-05-03T03:09:29.571Z,5.80
2019-05-03T03:12:02.056Z,8.03
2019-05-03T03:14:36.252Z,6.03
2019-05-03T03:17:10.838Z,7.87
2019-05-03T03:19:46.247Z,6.47
2019-05-03T03:22:20.326Z,6.60
2019-05-03T03:24:55.878Z,8.63
2019-05-03T03:27:29.360Z,9.60
2019-05-03T03:30:29.550Z,9.80
2019-05-03T03:33:02.827Z,9.93
2019-05-03T03:35:37.597Z,11.05
2019-05-03T03:38:05.773Z,12.40
2019-05-03T03:40:38.259Z,14.83
2019-05-03T03:43:10.931Z,19.85
2019-05-03T03:45:45.503Z,15.25
2019-05-03T03:48:19.707Z,18.00
2019-05-03T03:50:55.909Z,16.87
2019-05-03T03:53:28.455Z,15.72
2019-05-03T03:56:05.478Z,17.70
2019-05-03T03:58:35.983Z,18.50
2019-05-03T04:01:06.464Z,13.83
2019-05-03T04:03:36.733Z,20.23
2019-05-03T04:06:07.300Z,17.15
2019-05-03T04:08:37.835Z,16.40
2019-05-03T04:11:08.386Z,20.75
2019-05-03T04:13:41.523Z,14.58
2019-05-03T04:16:20.265Z,20.17
2019-05-03T04:18:55.126Z,15.03
2019-05-03T04:21:26.929Z,22.48
2019-05-03T04:23:58.997Z,21.05
2019-05-03T04:26:30.320Z,21.62
2019-05-03T04:29:00.976Z,20.37
2019-05-03T04:31:31.318Z,19.27
2019-05-03T04:34:01.605Z,20.55
2019-05-03T04:36:31.882Z,20.37
2019-05-03T04:39:02.185Z,20.88
2019-05-03T04:41:32.466Z,21.77
2019-05-03T04:44:02.757Z,20.88
2019-05-03T04:46:35.660Z,17.78
2019-05-03T04:49:05.769Z,21.24
2019-05-03T04:51:36.370Z,19.90
2019-05-03T04:54:25.293Z,19.27
2019-05-03T04:56:56.184Z,17.60
2019-05-03T04:59:27.015Z,15.85
2019-05-03T05:01:57.287Z,19.27
2019-05-03T05:04:27.576Z,18.30
2019-05-03T05:06:57.859Z,17.92
2019-05-03T05:09:28.134Z,14.87
2019-05-03T05:11:58.426Z,15.15
2019-05-03T05:14:29.676Z,17.37
2019-05-03T05:16:59.966Z,14.50
2019-05-03T05:19:37.945Z,17.90
2019-05-03T05:22:18.868Z,14.68
2019-05-03T05:24:49.155Z,14.03
2019-05-03T05:27:25.658Z,13.22
2019-05-03T05:29:56.617Z,14.68
2019-05-03T05:32:26.895Z,10.10
2019-05-03T05:34:57.182Z,10.50
2019-05-03T05:37:27.794Z,11.33
2019-05-03T05:39:58.086Z,15.10
2019-05-03T05:42:28.368Z,9.47
2019-05-03T05:44:58.898Z,8.70
2019-05-03T05:47:45.684Z,7.40
2019-05-03T05:50:25.345Z,8.15
2019-05-03T05:52:55.989Z,8.10
2019-05-03T05:55:27.993Z,9.43
2019-05-03T05:58:05.010Z,8.05
2019-05-03T06:00:44.803Z,10.87
2019-05-03T06:03:25.253Z,8.45
2019-05-03T06:05:57.361Z,7.60
2019-05-03T06:08:45.782Z,10.13
2019-05-03T06:11:34.606Z,10.50
2019-05-03T06:14:06.256Z,10.70
2019-05-03T06:16:45.160Z,10.63
2019-05-03T06:19:17.147Z,9.23
2019-05-03T06:21:51.759Z,11.40
2019-05-03T06:24:27.910Z,10.70
2019-05-03T06:26:59.865Z,11.22
2019-05-03T06:29:30.163Z,9.10
2019-05-03T06:32:10.882Z,9.05
2019-05-03T06:34:41.168Z,9.03
2019-05-03T06:37:14.822Z,8.70
2019-05-03T06:39:45.537Z,8.40
2019-05-03T06:42:19.182Z,10.10
2019-05-03T06:44:48.254Z,8.35
2019-05-03T06:47:18.520Z,10.42
2019-05-03T06:49:48.801Z,7.80
2019-05-03T06:52:19.761Z,8.60
2019-05-03T06:54:51.297Z,8.83
2019-05-03T06:57:22.322Z,8.33
2019-05-03T06:59:55.003Z,10.60
2019-05-03T07:02:28.548Z,10.03
2019-05-03T07:05:04.888Z,11.87
2019-05-03T07:07:37.940Z,11.00
2019-05-03T07:10:15.009Z,10.90
2019-05-03T07:13:01.710Z,12.08
2019-05-03T07:15:32.176Z,12.28
2019-05-03T07:18:02.463Z,13.58
2019-05-03T07:20:35.293Z,15.15
2019-05-03T07:23:05.628Z,11.03
2019-05-03T07:25:35.919Z,10.90
2019-05-03T07:28:06.202Z,9.65
2019-05-03T07:30:37.052Z,9.88
2019-05-03T07:33:12.013Z,12.77
2019-05-03T07:35:44.401Z,10.47
2019-05-03T07:38:15.539Z,12.23
2019-05-03T07:40:45.934Z,9.43
2019-05-03T07:43:18.815Z,8.98
2019-05-03T07:45:48.655Z,9.53
2019-05-03T07:48:19.009Z,10.00
2019-05-03T07:50:49.291Z,10.45
2019-05-03T07:53:19.573Z,9.35
2019-05-03T07:55:51.792Z,10.85
2019-05-03T07:58:35.519Z,7.72
2019-05-03T08:01:10.037Z,6.77
2019-05-03T08:03:39.909Z,6.35
2019-05-03T08:06:10.206Z,8.75
2019-05-03T08:08:40.476Z,7.03
2019-05-03T08:11:10.757Z,5.70
2019-05-03T08:13:41.040Z,6.08
2019-05-03T08:16:11.332Z,8.33
2019-05-03T08:18:41.911Z,6.03
2019-05-03T08:21:12.200Z,7.37
2019-05-03T08:23:42.609Z,5.83
2019-05-03T08:26:15.158Z,7.78
2019-05-03T08:28:44.870Z,7.83
2019-05-03T08:31:24.066Z,5.60
2019-05-03T08:33:58.666Z,5.90
2019-05-03T08:36:30.664Z,7.17
2019-05-03T08:39:00.937Z,6.60
2019-05-03T08:41:32.872Z,6.20
2019-05-03T08:44:05.129Z,5.30
2019-05-03T08:46:35.621Z,10.80
2019-05-03T08:49:05.903Z,4.35
2019-05-03T08:51:36.339Z,5.47
2019-05-03T08:54:06.627Z,5.75
2019-05-03T08:56:36.902Z,5.80
2019-05-03T08:59:07.194Z,6.08
2019-05-03T09:01:39.441Z,5.60
2019-05-03T09:04:09.531Z,5.03
2019-05-03T09:06:40.095Z,6.62
2019-05-03T09:09:29.143Z,6.40
2019-05-03T09:11:59.690Z,4.67
2019-05-03T09:14:41.470Z,7.10
2019-05-03T09:17:04.823Z,8.24
2019-05-03T09:19:34.842Z,5.95
2019-05-03T09:22:06.181Z,10.35
2019-05-03T09:24:36.572Z,7.78
2019-05-03T09:27:07.363Z,6.78
2019-05-03T09:29:43.122Z,6.03
2019-05-03T09:32:09.617Z,8.80
2019-05-03T09:34:39.889Z,6.40
2019-05-03T09:37:10.401Z,8.30
2019-05-03T09:39:40.939Z,7.10
2019-05-03T09:42:11.234Z,4.80
2019-05-03T09:44:41.539Z,6.80
2019-05-03T09:47:11.816Z,6.17
2019-05-03T09:49:42.100Z,5.60
2019-05-03T09:52:12.377Z,5.47
2019-05-03T09:54:46.827Z,6.55
2019-05-03T09:57:17.103Z,8.27
2019-05-03T09:59:56.486Z,5.65
2019-05-03T10:02:19.357Z,6.30
2019-05-03T10:04:49.922Z,5.87
2019-05-03T10:07:20.196Z,6.72
2019-05-03T10:09:50.487Z,6.30
2019-05-03T10:12:25.636Z,7.85
2019-05-03T10:14:55.999Z,5.43
2019-05-03T10:17:35.124Z,6.88
2019-05-03T10:20:08.949Z,6.83
2019-05-03T10:22:39.252Z,6.60
2019-05-03T10:25:10.254Z,5.75
2019-05-03T10:27:46.651Z,6.87
2019-05-03T10:30:21.082Z,6.90
2019-05-03T10:32:53.007Z,5.95
2019-05-03T10:35:24.599Z,5.10
2019-05-03T10:37:55.033Z,5.33
2019-05-03T10:40:28.328Z,5.83
2019-05-03T10:42:58.654Z,4.55
2019-05-03T10:45:28.946Z,6.17
2019-05-03T10:47:59.234Z,7.07
2019-05-03T10:50:29.519Z,7.50
2019-05-03T10:53:01.479Z,4.77
2019-05-03T10:55:31.770Z,4.30
2019-05-03T10:58:09.388Z,3.70
2019-05-03T11:00:46.249Z,6.60
2019-05-03T11:03:13.863Z,4.90
2019-05-03T11:05:45.427Z,4.53
2019-05-03T11:08:15.750Z,4.07
2019-05-03T11:10:46.028Z,4.22
2019-05-03T11:13:16.311Z,4.47
2019-05-03T11:15:46.600Z,4.42
2019-05-03T11:18:16.871Z,3.83
2019-05-03T11:20:47.149Z,6.30
2019-05-03T11:23:17.429Z,4.12
2019-05-03T11:25:47.699Z,5.10
2019-05-03T11:28:19.635Z,3.05
2019-05-03T11:30:55.362Z,4.58
2019-05-03T11:33:29.578Z,4.20
2019-05-03T11:36:07.597Z,3.50
2019-05-03T11:38:39.522Z,5.37
2019-05-03T11:41:09.809Z,2.90
2019-05-03T11:43:40.092Z,2.95
2019-05-03T11:46:10.373Z,4.83
2019-05-03T11:48:41.424Z,6.33
2019-05-03T11:51:12.714Z,4.90
2019-05-03T11:53:44.929Z,6.65
2019-05-03T11:56:15.001Z,5.33
2019-05-03T11:58:45.783Z,3.17
2019-05-03T12:01:20.113Z,7.17
2019-05-03T12:03:49.688Z,2.57
2019-05-03T12:06:19.963Z,5.70
2019-05-03T12:08:50.241Z,3.47
2019-05-03T12:11:20.517Z,2.83
2019-05-03T12:14:02.354Z,3.42
2019-05-03T12:16:59.839Z,3.67
2019-05-03T12:18:56.665Z,4.10
2019-05-03T12:21:28.483Z,4.42
2019-05-03T12:23:59.741Z,4.57
2019-05-03T12:26:41.532Z,4.87
2019-05-03T12:29:04.472Z,4.17
2019-05-03T12:31:40.270Z,4.20
2019-05-03T12:34:06.546Z,4.15
2019-05-03T12:36:39.185Z,4.15
2019-05-03T12:39:23.347Z,3.60
2019-05-03T12:41:40.766Z,3.10
2019-05-03T12:44:11.055Z,9.05
2019-05-03T12:47:02.539Z,5.43
2019-05-03T12:49:35.837Z,5.72
2019-05-03T12:52:06.295Z,3.00
2019-05-03T12:54:36.574Z,3.70
2019-05-03T12:57:07.496Z,3.10
2019-05-03T12:59:55.685Z,3.50
2019-05-03T13:02:30.505Z,5.83
2019-05-03T13:05:00.852Z,8.20
2019-05-03T13:07:34.681Z,5.53
2019-05-03T13:10:07.376Z,7.17
2019-05-03T13:12:49.787Z,9.05
2019-05-03T13:15:10.637Z,4.78
2019-05-03T13:17:40.988Z,5.90
2019-05-03T13:20:15.143Z,6.70
2019-05-03T13:22:46.017Z,2.90
2019-05-03T13:25:16.553Z,3.10
2019-05-03T13:27:46.861Z,5.45
2019-05-03T13:30:17.645Z,5.55
2019-05-03T13:32:47.929Z,3.50
2019-05-03T13:35:18.201Z,7.62
2019-05-03T13:37:48.482Z,4.60
2019-05-03T13:40:18.835Z,3.70
2019-05-03T13:42:57.696Z,2.95
2019-05-03T13:45:24.602Z,3.47
2019-05-03T13:47:55.242Z,4.65
2019-05-03T13:50:26.833Z,2.85
2019-05-03T13:52:57.109Z,3.90
2019-05-03T13:55:27.382Z,3.30
2019-05-03T13:57:57.891Z,6.33
2019-05-03T14:00:28.170Z,7.62
2019-05-03T14:02:58.445Z,2.83
2019-05-03T14:05:28.731Z,5.25
2019-05-03T14:07:59.035Z,3.47
2019-05-03T14:10:29.290Z,5.45
2019-05-03T14:12:59.572Z,4.42
2019-05-03T14:15:29.848Z,6.28
2019-05-03T14:18:00.362Z,3.02
2019-05-03T14:20:32.285Z,4.40
2019-05-03T14:23:02.561Z,4.35
2019-05-03T14:25:34.994Z,3.92
2019-05-03T14:28:05.528Z,3.60
2019-05-03T14:30:36.348Z,3.06
2019-05-03T14:33:06.629Z,6.15
2019-05-03T14:35:36.913Z,3.87
2019-05-03T14:38:08.402Z,4.20
2019-05-03T14:40:38.681Z,2.95
2019-05-03T14:43:08.962Z,5.00
2019-05-03T14:45:39.237Z,5.28
2019-05-03T14:48:09.970Z,2.85
2019-05-03T14:50:40.321Z,8.43
2019-05-03T14:53:10.594Z,4.92
2019-05-03T14:55:48.499Z,3.67
2019-05-03T14:58:20.418Z,4.65
2019-05-03T15:01:04.823Z,4.40
2019-05-03T15:03:35.173Z,5.36
2019-05-03T15:06:05.456Z,3.45
2019-05-03T15:08:35.728Z,3.80
2019-05-03T15:11:06.944Z,6.42
2019-05-03T15:13:37.210Z,2.22
2019-05-03T15:16:07.732Z,4.62
2019-05-03T15:18:38.073Z,5.90
2019-05-03T15:21:08.358Z,4.47
2019-05-03T15:23:38.658Z,5.50
2019-05-03T15:26:08.941Z,2.33
2019-05-03T15:28:39.218Z,4.20
2019-05-03T15:31:09.500Z,4.05
2019-05-03T15:33:39.862Z,4.42
2019-05-03T15:36:10.218Z,4.47
2019-05-03T15:38:40.490Z,5.45
2019-05-03T15:41:11.037Z,5.35
2019-05-03T15:43:48.593Z,5.47
2019-05-03T15:46:29.530Z,3.75
2019-05-03T15:49:04.590Z,4.47
2019-05-03T15:51:34.994Z,3.35
2019-05-03T15:54:05.448Z,3.40
2019-05-03T15:56:36.022Z,3.95
2019-05-03T15:59:06.559Z,6.90
2019-05-03T16:01:36.832Z,5.80
2019-05-03T16:04:07.118Z,4.47
2019-05-03T16:06:37.402Z,3.72
2019-05-03T16:09:08.144Z,7.10
2019-05-03T16:11:38.422Z,5.20
2019-05-03T16:14:08.801Z,3.35
2019-05-03T16:16:39.068Z,5.33
2019-05-03T16:19:09.352Z,7.50
2019-05-03T16:21:40.609Z,7.62
2019-05-03T16:24:10.888Z,8.75
2019-05-03T16:26:59.273Z,5.80
2019-05-03T16:29:29.683Z,4.85
2019-05-03T16:31:59.980Z,5.65
2019-05-03T16:34:30.552Z,6.12
2019-05-03T16:37:00.832Z,4.35
2019-05-03T16:39:31.133Z,4.23
2019-05-03T16:42:01.408Z,4.15
2019-05-03T16:44:31.685Z,8.60
2019-05-03T16:47:01.962Z,3.02
2019-05-03T16:49:32.234Z,3.77
2019-05-03T16:52:02.529Z,3.58
2019-05-03T16:54:34.825Z,6.28
2019-05-03T16:57:05.772Z,7.37
2019-05-03T16:59:36.464Z,4.12
2019-05-03T17:02:06.812Z,4.87
2019-05-03T17:04:41.714Z,3.17
2019-05-03T17:07:25.521Z,4.30
2019-05-03T17:10:07.478Z,5.63
2019-05-03T17:12:38.498Z,4.72
2019-05-03T17:15:10.181Z,3.92
2019-05-03T17:17:40.844Z,5.70
2019-05-03T17:20:11.429Z,5.17
2019-05-03T17:22:41.949Z,6.45
2019-05-03T17:25:15.000Z,2.52
2019-05-03T17:27:45.357Z,6.70
2019-05-03T17:30:17.019Z,5.83
2019-05-03T17:32:47.441Z,3.42
2019-05-03T17:35:17.716Z,4.87
2019-05-03T17:37:48.001Z,4.58
2019-05-03T17:40:51.016Z,4.08
2019-05-03T17:43:22.941Z,5.12
2019-05-03T17:45:57.691Z,6.65
2019-05-03T17:48:27.984Z,3.76
2019-05-03T17:50:58.328Z,6.53
2019-05-03T17:53:30.250Z,4.37
2019-05-03T17:56:04.838Z,5.17
2019-05-03T17:58:39.739Z,4.22
2019-05-03T18:01:17.853Z,6.77
2019-05-03T18:04:03.968Z,2.80
2019-05-03T18:06:25.894Z,3.03
2019-05-03T18:08:57.821Z,4.70
2019-05-03T18:11:35.618Z,4.70
2019-05-03T18:14:06.384Z,5.62
2019-05-03T18:16:36.698Z,4.53
2019-05-03T18:19:07.046Z,4.43
2019-05-03T18:21:37.328Z,3.95
2019-05-03T18:24:07.606Z,3.22
2019-05-03T18:26:37.885Z,4.42
2019-05-03T18:29:08.156Z,5.15
2019-05-03T18:31:38.509Z,3.60
2019-05-03T18:34:18.691Z,7.05
2019-05-03T18:36:40.765Z,3.73
2019-05-03T18:39:11.415Z,7.22
2019-05-03T18:41:41.701Z,4.40
2019-05-03T18:44:19.465Z,4.13
2019-05-03T18:46:55.081Z,4.37
2019-05-03T18:49:25.372Z,6.63
2019-05-03T18:51:55.651Z,5.12
2019-05-03T18:54:25.935Z,4.33
2019-05-03T18:56:56.217Z,4.85
2019-05-03T18:59:26.498Z,4.05
2019-05-03T19:01:57.724Z,4.32
2019-05-03T19:07:32.337Z,6.05
2019-05-03T19:10:22.599Z,7.78
2019-05-03T19:12:57.560Z,2.40
2019-05-03T19:15:29.726Z,2.30
2019-05-03T19:18:04.864Z,7.42
2019-05-03T19:20:35.355Z,4.75
2019-05-03T19:23:06.129Z,3.98
2019-05-03T19:25:45.837Z,3.62
2019-05-03T19:28:08.728Z,5.10
2019-05-03T19:30:40.656Z,4.72
2019-05-03T19:33:10.929Z,5.05
2019-05-03T19:35:41.274Z,8.50
2019-05-03T19:38:11.626Z,6.40
2019-05-03T19:40:41.901Z,7.90
2019-05-03T19:43:12.190Z,4.83
2019-05-03T19:45:44.784Z,4.10
2019-05-03T19:48:16.880Z,2.40
2019-05-03T19:50:46.811Z,4.45
2019-05-03T19:53:21.669Z,4.50
2019-05-03T19:55:51.946Z,4.85
2019-05-03T19:58:22.224Z,2.50
2019-05-03T20:00:54.924Z,3.58
2019-05-03T20:03:35.270Z,3.80
2019-05-03T20:06:16.191Z,3.30
2019-05-03T20:08:48.593Z,9.13
2019-05-03T20:11:19.161Z,4.65
2019-05-03T20:13:49.443Z,3.07
2019-05-03T20:16:19.720Z,2.47
2019-05-03T20:18:50.003Z,5.87
2019-05-03T20:21:20.507Z,4.80
2019-05-03T20:23:50.788Z,7.62
2019-05-03T20:26:21.066Z,16.10
2019-05-03T20:28:51.348Z,8.45
2019-05-03T20:31:21.638Z,7.08
2019-05-03T20:33:54.774Z,9.24
2019-05-03T20:36:24.954Z,10.67
2019-05-03T20:38:55.460Z,4.95
2019-05-03T20:41:27.562Z,6.00
2019-05-03T20:44:02.246Z,5.87
2019-05-03T20:49:08.479Z,6.20
2019-05-03T20:51:58.096Z,4.28
2019-05-03T20:54:28.436Z,6.50
2019-05-03T20:56:58.714Z,5.35
2019-05-03T20:59:41.570Z,6.15
2019-05-03T21:02:00.961Z,6.08
2019-05-03T21:04:31.235Z,5.15
2019-05-03T21:07:01.557Z,6.55
2019-05-03T21:09:31.796Z,5.28
2019-05-03T21:12:02.099Z,4.78
2019-05-03T21:14:32.372Z,7.47
2019-05-03T21:17:10.291Z,6.40
2019-05-03T21:19:48.174Z,10.32
2019-05-03T21:22:20.101Z,7.58
2019-05-03T21:24:54.947Z,10.93
2019-05-03T21:27:25.244Z,9.68
2019-05-03T21:29:55.519Z,7.13
2019-05-03T21:32:25.804Z,9.68
2019-05-03T21:34:56.394Z,6.50
2019-05-03T21:37:26.936Z,10.13
2019-05-03T21:39:57.219Z,5.15
2019-05-03T21:42:27.485Z,8.85
2019-05-03T21:44:57.773Z,12.15
2019-05-03T21:47:48.177Z,10.18
2019-05-03T21:50:19.839Z,13.93
2019-05-03T21:52:50.111Z,10.68
2019-05-03T21:55:20.411Z,12.90
2019-05-03T21:57:51.258Z,9.28
2019-05-03T22:00:22.960Z,12.13
2019-05-03T22:02:54.615Z,9.98
2019-05-03T22:05:26.462Z,13.70
2019-05-03T22:07:56.775Z,13.65
2019-05-03T22:10:27.062Z,11.37
2019-05-03T22:12:57.415Z,14.90
2019-05-03T22:15:41.933Z,11.53
2019-05-03T22:18:15.183Z,12.98
2019-05-03T22:20:47.181Z,15.55
2019-05-03T22:23:27.921Z,15.27
2019-05-03T22:25:59.058Z,13.00
2019-05-03T22:28:29.361Z,13.68
2019-05-03T22:30:59.689Z,12.28
2019-05-03T22:33:29.981Z,18.17
2019-05-03T22:36:08.644Z,15.30
2019-05-03T22:38:33.115Z,16.23
2019-05-03T22:41:05.478Z,13.08
2019-05-03T22:43:35.792Z,14.23
2019-05-03T22:46:06.075Z,15.68
2019-05-03T22:48:37.205Z,12.33
2019-05-03T22:51:07.492Z,14.68
2019-05-03T22:53:38.106Z,15.32
2019-05-03T22:56:08.394Z,19.92
2019-05-03T22:58:38.903Z,16.20
2019-05-03T23:01:09.188Z,13.15
2019-05-03T23:03:41.099Z,19.00
2019-05-03T23:06:20.273Z,15.43
2019-05-03T23:08:44.814Z,15.50
2019-05-03T23:11:15.089Z,18.90
2019-05-03T23:13:47.011Z,14.73
2019-05-03T23:16:17.579Z,13.55
2019-05-03T23:18:47.859Z,19.95
2019-05-03T23:21:19.790Z,17.35
2019-05-03T23:23:51.711Z,20.00
2019-05-03T23:26:22.266Z,19.60
2019-05-03T23:28:52.581Z,20.15
2019-05-03T23:31:24.993Z,16.77
2019-05-03T23:33:54.846Z,19.25
2019-05-03T23:36:33.174Z,17.02
2019-05-03T23:38:58.741Z,19.12
2019-05-03T23:41:29.047Z,16.57
2019-05-03T23:43:59.367Z,16.70
2019-05-03T23:46:34.792Z,15.48
2019-05-03T23:49:05.113Z,14.90
2019-05-03T23:51:44.423Z,19.97
2019-05-03T23:54:15.062Z,14.30
2019-05-03T23:56:45.958Z,15.50
2019-05-03T23:59:16.477Z,16.52
